createdAt,value
2023-06-10T00:01:56.523Z,13.91
2023-06-10T00:04:23.907Z,13.87
2023-06-10T00:06:51.825Z,13.77
2023-06-10T00:09:19.628Z,13.70
2023-06-10T00:11:48.601Z,13.65
2023-06-10T00:14:16.242Z,13.58
2023-06-10T00:16:46.453Z,13.52
2023-06-10T00:19:16.974Z,13.45
2023-06-10T00:21:45.965Z,13.45
2023-06-10T00:24:14.010Z,13.43
2023-06-10T00:26:42.180Z,13.36
2023-06-10T00:29:11.293Z,13.33
2023-06-10T00:31:39.458Z,13.29
2023-06-10T00:34:08.540Z,13.24
2023-06-10T00:36:37.164Z,13.22
2023-06-10T00:39:05.859Z,13.20
2023-06-10T00:41:35.184Z,13.21
2023-06-10T00:44:02.722Z,13.21
2023-06-10T00:46:33.584Z,13.20
2023-06-10T00:49:01.520Z,13.19
2023-06-10T00:51:29.015Z,13.19
2023-06-10T00:53:56.503Z,13.22
2023-06-10T00:56:24.142Z,13.22
2023-06-10T00:58:52.323Z,13.25
2023-06-10T01:01:21.252Z,13.26
2023-06-10T01:03:50.067Z,13.26
2023-06-10T01:06:26.238Z,13.27
2023-06-10T01:09:00.218Z,13.27
2023-06-10T01:11:35.500Z,13.26
2023-06-10T01:14:05.174Z,13.25
2023-06-10T01:16:32.974Z,13.30
2023-06-10T01:19:01.774Z,13.27
2023-06-10T01:21:35.023Z,13.28
2023-06-10T01:24:03.177Z,13.29
2023-06-10T01:26:34.018Z,13.26
2023-06-10T01:29:08.661Z,13.28
2023-06-10T01:31:44.540Z,13.25
2023-06-10T01:34:15.508Z,13.21
2023-06-10T01:36:47.360Z,13.19
2023-06-10T01:39:16.171Z,13.18
2023-06-10T01:41:43.898Z,13.17
2023-06-10T01:44:12.451Z,13.15
2023-06-10T01:46:41.408Z,13.11
2023-06-10T01:49:08.762Z,13.04
2023-06-10T01:51:37.355Z,12.97
2023-06-10T01:54:07.339Z,12.96
2023-06-10T01:56:35.085Z,12.94
2023-06-10T01:59:03.043Z,12.95
2023-06-10T02:01:32.068Z,12.90
2023-06-10T02:03:59.630Z,12.86
2023-06-10T02:06:27.370Z,12.84
2023-06-10T02:08:54.805Z,12.80
2023-06-10T02:11:23.556Z,12.73
2023-06-10T02:13:52.922Z,12.67
2023-06-10T02:16:22.504Z,12.67
2023-06-10T02:18:50.071Z,12.68
2023-06-10T02:21:17.444Z,12.65
2023-06-10T02:23:44.916Z,12.63
2023-06-10T02:26:12.428Z,12.62
2023-06-10T02:28:43.804Z,12.64
2023-06-10T02:31:11.303Z,12.66
2023-06-10T02:33:41.492Z,12.65
2023-06-10T02:36:09.859Z,12.65
2023-06-10T02:38:37.254Z,12.63
2023-06-10T02:41:04.930Z,12.58
2023-06-10T02:43:32.855Z,12.57
2023-06-10T02:46:02.233Z,12.58
2023-06-10T02:48:30.037Z,12.58
2023-06-10T02:50:58.356Z,12.60
2023-06-10T02:53:32.476Z,12.64
2023-06-10T02:56:06.378Z,12.64
2023-06-10T02:58:33.974Z,12.62
2023-06-10T03:01:03.671Z,12.66
2023-06-10T03:03:43.155Z,12.70
2023-06-10T03:06:13.800Z,12.74
2023-06-10T03:08:41.764Z,12.77
2023-06-10T03:11:13.918Z,12.81
2023-06-10T03:13:41.975Z,12.83
2023-06-10T03:16:14.168Z,12.90
2023-06-10T03:18:42.356Z,13.01
2023-06-10T03:21:10.343Z,13.08
2023-06-10T03:23:39.149Z,13.14
2023-06-10T03:26:07.490Z,13.17
2023-06-10T03:28:36.793Z,13.17
2023-06-10T03:31:04.593Z,13.16
2023-06-10T03:33:35.546Z,13.14
2023-06-10T03:36:03.257Z,13.17
2023-06-10T03:38:31.185Z,13.21
2023-06-10T03:40:59.086Z,13.30
2023-06-10T03:43:27.790Z,13.34
2023-06-10T03:45:55.803Z,13.36
2023-06-10T03:48:23.333Z,13.43
2023-06-10T03:50:55.164Z,13.41
2023-06-10T03:53:23.574Z,13.43
2023-06-10T03:55:51.673Z,13.42
2023-06-10T03:58:22.756Z,13.41
2023-06-10T04:00:50.780Z,13.43
2023-06-10T04:03:18.495Z,13.47
2023-06-10T04:05:48.760Z,13.53
2023-06-10T04:08:17.923Z,13.60
2023-06-10T04:10:46.186Z,13.65
2023-06-10T04:13:15.871Z,13.69
2023-06-10T04:15:52.201Z,13.74
2023-06-10T04:18:20.166Z,13.75
2023-06-10T04:20:48.084Z,13.78
2023-06-10T04:23:17.347Z,13.73
2023-06-10T04:25:46.993Z,13.66
2023-06-10T04:28:14.949Z,13.66
2023-06-10T04:30:43.758Z,13.74
2023-06-10T04:33:12.196Z,13.86
2023-06-10T04:35:40.868Z,13.93
2023-06-10T04:38:10.683Z,14.00
2023-06-10T04:40:39.589Z,14.13
2023-06-10T04:43:07.378Z,14.27
2023-06-10T04:45:35.756Z,14.42
2023-06-10T04:48:04.417Z,14.56
2023-06-10T04:50:34.201Z,14.63
2023-06-10T04:53:01.599Z,14.64
2023-06-10T04:55:29.270Z,14.77
2023-06-10T04:57:58.723Z,14.86
2023-06-10T05:00:26.334Z,14.89
2023-06-10T05:02:53.974Z,14.94
2023-06-10T05:05:21.379Z,15.01
2023-06-10T05:07:49.103Z,15.08
2023-06-10T05:10:16.958Z,15.08
2023-06-10T05:12:44.381Z,15.08
2023-06-10T05:15:13.723Z,15.07
2023-06-10T05:17:41.318Z,15.14
2023-06-10T05:20:09.688Z,15.18
2023-06-10T05:22:36.994Z,15.25
2023-06-10T05:25:04.946Z,15.37
2023-06-10T05:27:32.355Z,15.41
2023-06-10T05:30:00.578Z,15.51
2023-06-10T05:32:29.417Z,15.49
2023-06-10T05:34:56.872Z,15.59
2023-06-10T05:37:24.357Z,15.74
2023-06-10T05:39:51.941Z,15.89
2023-06-10T05:42:19.455Z,15.99
2023-06-10T05:44:46.871Z,16.01
2023-06-10T05:47:14.450Z,16.05
2023-06-10T05:49:43.406Z,16.09
2023-06-10T05:52:10.970Z,16.17
2023-06-10T05:54:38.661Z,16.28
2023-06-10T05:57:07.055Z,16.35
2023-06-10T05:59:34.412Z,16.42
2023-06-10T06:02:01.840Z,16.48
2023-06-10T06:04:29.270Z,16.54
2023-06-10T06:06:58.090Z,16.54
2023-06-10T06:09:25.430Z,16.55
2023-06-10T06:11:52.934Z,16.52
2023-06-10T06:14:20.521Z,16.58
2023-06-10T06:16:47.860Z,16.64
2023-06-10T06:19:15.540Z,16.51
2023-06-10T06:21:43.240Z,16.67
2023-06-10T06:24:12.089Z,17.00
2023-06-10T06:26:39.463Z,17.25
2023-06-10T06:29:06.871Z,17.56
2023-06-10T06:31:34.512Z,17.99
2023-06-10T06:34:01.862Z,18.08
2023-06-10T06:36:29.242Z,17.94
2023-06-10T06:38:56.653Z,17.69
2023-06-10T06:41:27.568Z,17.63
2023-06-10T06:43:55.572Z,18.05
2023-06-10T06:46:30.785Z,18.59
2023-06-10T06:48:58.222Z,19.09
2023-06-10T06:51:25.814Z,19.47
2023-06-10T06:53:55.897Z,19.65
2023-06-10T06:56:23.175Z,19.41
2023-06-10T06:58:52.072Z,19.07
2023-06-10T07:01:19.754Z,18.69
2023-06-10T07:03:47.229Z,18.27
2023-06-10T07:06:14.840Z,18.32
2023-06-10T07:08:42.224Z,18.80
2023-06-10T07:11:09.718Z,19.36
2023-06-10T07:13:37.087Z,19.70
2023-06-10T07:16:05.963Z,19.85
2023-06-10T07:18:33.560Z,19.95
2023-06-10T07:21:01.030Z,19.81
2023-06-10T07:23:28.458Z,19.38
2023-06-10T07:25:56.057Z,18.86
2023-06-10T07:28:23.845Z,18.44
2023-06-10T07:30:51.888Z,18.12
2023-06-10T07:33:20.769Z,18.22
2023-06-10T07:35:48.380Z,18.50
2023-06-10T07:38:16.221Z,18.84
2023-06-10T07:40:43.668Z,19.24
2023-06-10T07:43:11.321Z,19.63
2023-06-10T07:45:40.512Z,20.11
2023-06-10T07:48:08.430Z,20.49
2023-06-10T07:50:37.248Z,20.60
2023-06-10T07:53:05.656Z,20.87
2023-06-10T07:55:33.274Z,20.65
2023-06-10T07:58:00.848Z,20.23
2023-06-10T08:00:28.354Z,19.74
2023-06-10T08:02:56.965Z,19.32
2023-06-10T08:05:24.589Z,18.94
2023-06-10T08:07:53.290Z,18.62
2023-06-10T08:10:20.835Z,18.40
2023-06-10T08:12:48.449Z,18.22
2023-06-10T08:15:16.079Z,18.25
2023-06-10T08:17:43.530Z,18.25
2023-06-10T08:20:11.388Z,18.33
2023-06-10T08:22:39.705Z,18.58
2023-06-10T08:25:10.168Z,18.83
2023-06-10T08:27:37.868Z,19.10
2023-06-10T08:30:06.437Z,19.13
2023-06-10T08:32:34.154Z,19.02
2023-06-10T08:35:01.731Z,18.84
2023-06-10T08:37:29.685Z,18.59
2023-06-10T08:39:57.143Z,18.40
2023-06-10T08:45:17.413Z,18.04
2023-06-10T08:47:46.416Z,17.98
2023-06-10T08:50:13.930Z,17.94
2023-06-10T08:52:44.914Z,17.91
2023-06-10T08:55:15.301Z,18.01
2023-06-10T08:57:45.806Z,18.41
2023-06-10T09:00:14.458Z,18.85
2023-06-10T09:02:42.148Z,19.25
2023-06-10T09:05:10.688Z,19.63
2023-06-10T09:07:38.374Z,19.92
2023-06-10T09:10:08.626Z,20.08
2023-06-10T09:12:36.802Z,20.20
2023-06-10T09:15:06.889Z,20.17
2023-06-10T09:17:34.703Z,20.05
2023-06-10T09:20:04.002Z,19.92
2023-06-10T09:22:34.470Z,19.83
2023-06-10T09:25:08.363Z,19.76
2023-06-10T09:27:46.506Z,19.62
2023-06-10T09:30:28.851Z,19.51
2023-06-10T09:32:57.727Z,19.46
2023-06-10T09:35:25.839Z,19.40
2023-06-10T09:37:54.427Z,19.33
2023-06-10T09:40:22.089Z,19.43
2023-06-10T09:42:56.342Z,19.67
2023-06-10T09:45:30.594Z,19.93
2023-06-10T09:47:58.209Z,19.98
2023-06-10T09:50:26.099Z,20.08
2023-06-10T09:52:54.531Z,20.16
2023-06-10T09:55:21.928Z,20.16
2023-06-10T09:57:51.199Z,20.26
2023-06-10T10:00:19.471Z,20.10
2023-06-10T10:02:49.590Z,19.94
2023-06-10T10:05:18.934Z,19.97
2023-06-10T10:07:47.339Z,19.99
2023-06-10T10:10:16.285Z,19.87
2023-06-10T10:12:44.227Z,19.67
2023-06-10T10:15:12.961Z,19.38
2023-06-10T10:17:46.155Z,19.24
2023-06-10T10:20:21.779Z,19.34
2023-06-10T10:22:54.654Z,19.60
2023-06-10T10:25:26.011Z,19.75
2023-06-10T10:27:58.275Z,19.67
2023-06-10T10:30:27.053Z,19.54
2023-06-10T10:33:00.273Z,19.60
2023-06-10T10:35:29.391Z,19.86
2023-06-10T10:37:56.980Z,20.15
2023-06-10T10:40:26.070Z,20.26
2023-06-10T10:42:54.448Z,20.30
2023-06-10T10:45:23.647Z,20.31
2023-06-10T10:47:54.528Z,20.47
2023-06-10T10:50:22.384Z,20.60
2023-06-10T10:52:57.120Z,20.50
2023-06-10T10:55:25.133Z,20.27
2023-06-10T10:57:57.202Z,20.06
2023-06-10T11:00:31.607Z,20.08
2023-06-10T11:03:10.737Z,20.05
2023-06-10T11:05:42.226Z,20.19
2023-06-10T11:08:12.501Z,20.43
2023-06-10T11:10:41.971Z,20.72
2023-06-10T11:13:10.472Z,20.88
2023-06-10T11:15:45.624Z,21.05
2023-06-10T11:18:21.488Z,21.34
2023-06-10T11:21:02.722Z,21.25
2023-06-10T11:23:43.050Z,20.97
2023-06-10T11:26:38.246Z,20.58
2023-06-10T11:29:10.298Z,20.12
2023-06-10T11:31:51.570Z,19.88
2023-06-10T11:34:26.969Z,19.59
2023-06-10T11:36:55.053Z,19.26
2023-06-10T11:39:25.710Z,19.30
2023-06-10T11:41:53.927Z,19.72
2023-06-10T11:44:21.439Z,20.31
2023-06-10T11:46:50.404Z,20.63
2023-06-10T11:49:18.056Z,20.59
2023-06-10T11:51:50.858Z,20.32
2023-06-10T11:54:19.216Z,19.94
2023-06-10T11:56:48.970Z,19.63
2023-06-10T11:59:16.542Z,19.60
2023-06-10T12:01:45.696Z,20.01
2023-06-10T12:04:15.428Z,20.57
2023-06-10T12:06:44.668Z,20.64
2023-06-10T12:09:25.866Z,20.55
2023-06-10T12:11:59.347Z,20.73
2023-06-10T12:14:53.440Z,20.81
2023-06-10T12:17:22.437Z,20.39
2023-06-10T12:19:50.195Z,20.09
2023-06-10T12:22:17.822Z,19.81
2023-06-10T12:24:46.695Z,19.56
2023-06-10T12:27:15.835Z,19.49
2023-06-10T12:29:53.440Z,19.35
2023-06-10T12:32:24.203Z,19.15
2023-06-10T12:34:51.857Z,19.11
2023-06-10T12:37:19.539Z,19.01
2023-06-10T12:39:54.609Z,18.86
2023-06-10T12:42:24.688Z,19.32
2023-06-10T12:44:55.436Z,20.05
2023-06-10T12:47:30.800Z,20.46
2023-06-10T12:49:58.263Z,21.09
2023-06-10T12:52:25.904Z,21.82
2023-06-10T12:54:53.901Z,22.29
2023-06-10T12:57:21.852Z,22.10
2023-06-10T12:59:53.899Z,22.38
2023-06-10T13:02:21.711Z,22.79
2023-06-10T13:04:49.379Z,23.30
2023-06-10T13:07:17.357Z,23.89
2023-06-10T13:09:45.399Z,24.27
2023-06-10T13:12:16.762Z,24.61
2023-06-10T13:14:44.643Z,24.81
2023-06-10T13:17:13.747Z,24.37
2023-06-10T13:19:41.289Z,23.62
2023-06-10T13:22:08.759Z,22.86
2023-06-10T13:24:36.442Z,22.01
2023-06-10T13:27:03.985Z,21.30
2023-06-10T13:29:32.075Z,20.78
2023-06-10T13:31:59.521Z,20.45
2023-06-10T13:34:29.421Z,20.17
2023-06-10T13:36:57.082Z,20.01
2023-06-10T13:39:24.644Z,19.93
2023-06-10T13:41:53.345Z,20.42
2023-06-10T13:44:20.849Z,21.12
2023-06-10T13:46:50.256Z,21.76
2023-06-10T13:49:18.038Z,22.27
2023-06-10T13:51:46.873Z,22.66
2023-06-10T13:54:16.927Z,22.99
2023-06-10T13:56:44.468Z,23.29
2023-06-10T13:59:11.814Z,23.51
2023-06-10T14:01:39.308Z,23.68
2023-06-10T14:04:07.897Z,23.77
2023-06-10T14:06:35.613Z,23.21
2023-06-10T14:09:04.998Z,22.57
2023-06-10T14:11:34.936Z,22.35
2023-06-10T14:14:02.697Z,22.38
2023-06-10T14:16:30.115Z,22.54
2023-06-10T14:18:57.605Z,22.49
2023-06-10T14:21:25.134Z,22.15
2023-06-10T14:23:54.427Z,21.95
2023-06-10T14:26:23.376Z,21.95
2023-06-10T14:28:50.947Z,21.67
2023-06-10T14:31:18.390Z,21.33
2023-06-10T14:33:46.119Z,21.14
2023-06-10T14:36:13.800Z,21.31
2023-06-10T14:38:41.174Z,21.62
2023-06-10T14:41:08.668Z,21.93
2023-06-10T14:43:37.562Z,22.20
2023-06-10T14:46:05.061Z,22.36
2023-06-10T14:48:32.544Z,22.32
2023-06-10T14:51:00.354Z,22.28
2023-06-10T14:53:27.858Z,22.40
2023-06-10T14:55:55.261Z,22.44
2023-06-10T14:58:22.652Z,22.38
2023-06-10T15:00:51.704Z,22.48
2023-06-10T15:03:19.066Z,22.53
2023-06-10T15:05:46.507Z,22.65
2023-06-10T15:08:13.968Z,22.43
2023-06-10T15:10:41.463Z,22.02
2023-06-10T15:13:08.920Z,21.40
2023-06-10T15:15:36.528Z,20.90
2023-06-10T15:18:05.539Z,20.34
2023-06-10T15:20:32.904Z,19.97
2023-06-10T15:23:00.522Z,19.73
2023-06-10T15:25:31.426Z,19.63
2023-06-10T15:27:59.701Z,19.92
2023-06-10T15:30:27.261Z,20.20
2023-06-10T15:32:54.736Z,20.47
2023-06-10T15:35:23.630Z,20.53
2023-06-10T15:37:51.095Z,20.35
2023-06-10T15:40:18.674Z,20.22
2023-06-10T15:42:47.207Z,20.11
2023-06-10T15:45:14.766Z,20.03
2023-06-10T15:47:43.634Z,20.02
2023-06-10T15:50:11.827Z,19.90
2023-06-10T15:52:40.719Z,19.75
2023-06-10T15:55:09.191Z,19.68
2023-06-10T15:57:36.796Z,19.59
2023-06-10T16:00:04.947Z,19.54
2023-06-10T16:02:35.854Z,19.44
2023-06-10T16:05:05.319Z,19.20
2023-06-10T16:07:32.770Z,18.86
2023-06-10T16:10:01.529Z,18.54
2023-06-10T16:12:31.755Z,18.15
2023-06-10T16:14:59.147Z,17.89
2023-06-10T16:17:27.102Z,17.73
2023-06-10T16:19:54.632Z,17.64
2023-06-10T16:22:31.013Z,17.46
2023-06-10T16:24:58.588Z,17.25
2023-06-10T16:27:27.536Z,17.15
2023-06-10T16:29:55.099Z,17.07
2023-06-10T16:32:22.735Z,16.97
2023-06-10T16:34:52.380Z,16.91
2023-06-10T16:37:20.247Z,16.82
2023-06-10T16:39:47.662Z,16.76
2023-06-10T16:42:30.264Z,16.64
2023-06-10T16:45:11.126Z,16.47
2023-06-10T16:47:38.824Z,16.33
2023-06-10T16:50:07.008Z,16.28
2023-06-10T16:52:34.510Z,16.25
2023-06-10T16:55:02.059Z,16.21
2023-06-10T16:57:34.404Z,16.17
2023-06-10T17:00:01.821Z,16.13
2023-06-10T17:02:35.979Z,16.14
2023-06-10T17:05:03.954Z,16.13
2023-06-10T17:07:35.676Z,16.08
2023-06-10T17:10:04.847Z,16.02
2023-06-10T17:12:32.785Z,15.91
2023-06-10T17:15:00.176Z,15.89
2023-06-10T17:17:28.080Z,15.79
2023-06-10T17:19:57.239Z,15.69
2023-06-10T17:22:24.558Z,15.61
2023-06-10T17:24:51.997Z,15.57
2023-06-10T17:27:19.419Z,15.53
2023-06-10T17:29:46.744Z,15.51
2023-06-10T17:32:14.443Z,15.51
2023-06-10T17:34:41.834Z,15.49
2023-06-10T17:37:10.552Z,15.47
2023-06-10T17:39:37.896Z,15.44
2023-06-10T17:42:07.073Z,15.44
2023-06-10T17:44:35.122Z,15.46
2023-06-10T17:47:03.682Z,15.45
2023-06-10T17:49:33.181Z,15.41
2023-06-10T17:52:01.511Z,15.39
2023-06-10T17:54:30.587Z,15.35
2023-06-10T17:56:58.177Z,15.30
2023-06-10T17:59:25.590Z,15.27
2023-06-10T18:01:53.304Z,15.19
2023-06-10T18:04:20.858Z,15.10
2023-06-10T18:06:48.531Z,15.05
2023-06-10T18:09:16.235Z,14.97
2023-06-10T18:11:45.012Z,14.93
2023-06-10T18:14:12.417Z,14.86
2023-06-10T18:16:40.065Z,14.79
2023-06-10T18:19:07.490Z,14.78
2023-06-10T18:21:35.022Z,14.75
2023-06-10T18:24:02.538Z,14.72
2023-06-10T18:26:30.315Z,14.65
2023-06-10T18:28:59.122Z,14.58
2023-06-10T18:31:27.034Z,14.51
2023-06-10T18:33:54.638Z,14.43
2023-06-10T18:36:22.136Z,14.40
2023-06-10T18:38:49.679Z,14.36
2023-06-10T18:41:17.831Z,14.33
2023-06-10T18:43:45.270Z,14.31
2023-06-10T18:46:14.106Z,14.26
2023-06-10T18:48:43.144Z,14.18
2023-06-10T18:51:10.814Z,14.13
2023-06-10T18:53:56.740Z,14.08
2023-06-10T18:56:24.246Z,14.06
2023-06-10T18:58:51.878Z,13.99
2023-06-10T19:01:20.893Z,13.98
2023-06-10T19:03:48.914Z,13.95
2023-06-10T19:06:16.768Z,13.95
2023-06-10T19:08:44.629Z,13.94
2023-06-10T19:11:13.437Z,13.91
2023-06-10T19:13:40.846Z,13.88
2023-06-10T19:16:08.500Z,13.83
2023-06-10T19:18:37.525Z,13.83
2023-06-10T19:21:07.916Z,13.84
2023-06-10T19:23:37.400Z,13.82
2023-06-10T19:26:05.025Z,13.82
2023-06-10T19:28:32.408Z,13.76
2023-06-10T19:30:59.905Z,13.72
2023-06-10T19:33:27.349Z,13.69
2023-06-10T19:35:56.682Z,13.66
2023-06-10T19:38:24.064Z,13.58
2023-06-10T19:40:51.567Z,13.52
2023-06-10T19:43:19.657Z,13.47
2023-06-10T19:45:47.194Z,13.42
2023-06-10T19:48:15.504Z,13.36
2023-06-10T19:50:42.984Z,13.32
2023-06-10T19:53:11.808Z,13.30
2023-06-10T19:55:39.105Z,13.26
2023-06-10T19:58:06.514Z,13.20
2023-06-10T20:00:33.971Z,13.13
2023-06-10T20:03:02.002Z,13.09
2023-06-10T20:05:29.431Z,13.06
2023-06-10T20:07:56.998Z,13.02
2023-06-10T20:10:27.062Z,12.97
2023-06-10T20:12:54.545Z,12.96
2023-06-10T20:15:21.947Z,12.94
2023-06-10T20:17:51.509Z,12.89
2023-06-10T20:20:19.091Z,12.86
2023-06-10T20:22:47.442Z,12.83
2023-06-10T20:25:15.165Z,12.81
2023-06-10T20:27:44.137Z,12.77
2023-06-10T20:30:12.302Z,12.72
2023-06-10T20:32:39.695Z,12.65
2023-06-10T20:35:08.650Z,12.59
2023-06-10T20:37:36.374Z,12.54
2023-06-10T20:40:05.266Z,12.49
2023-06-10T20:42:33.076Z,12.44
2023-06-10T20:45:02.999Z,12.42
2023-06-10T20:47:32.658Z,12.42
2023-06-10T20:50:00.237Z,12.40
2023-06-10T20:52:27.718Z,12.32
2023-06-10T20:54:55.175Z,12.27
2023-06-10T20:57:23.075Z,12.21
2023-06-10T20:59:50.732Z,12.15
2023-06-10T21:02:19.621Z,12.14
2023-06-10T21:04:47.071Z,12.11
2023-06-10T21:07:14.442Z,12.07
2023-06-10T21:12:25.870Z,11.99
2023-06-10T21:14:53.192Z,11.95
2023-06-10T21:17:22.134Z,11.95
2023-06-10T21:19:49.689Z,11.92
2023-06-10T21:22:16.986Z,11.87
2023-06-10T21:24:44.375Z,11.82
2023-06-10T21:27:12.211Z,11.77
2023-06-10T21:29:40.131Z,11.73
2023-06-10T21:32:10.762Z,11.72
2023-06-10T21:34:39.630Z,11.66
2023-06-10T21:37:07.335Z,11.62
2023-06-10T21:39:34.811Z,11.54
2023-06-10T21:42:02.328Z,11.52
2023-06-10T21:44:29.628Z,11.51
2023-06-10T21:46:57.012Z,11.47
2023-06-10T21:49:24.707Z,11.45
2023-06-10T21:51:53.624Z,11.41
2023-06-10T21:54:21.237Z,11.37
2023-06-10T21:56:49.916Z,11.34
2023-06-10T21:59:19.006Z,11.34
2023-06-10T22:01:46.637Z,11.32
2023-06-10T22:04:14.520Z,11.32
2023-06-10T22:06:42.064Z,11.33
2023-06-10T22:09:11.170Z,11.31
2023-06-10T22:11:38.594Z,11.29
2023-06-10T22:14:06.490Z,11.27
2023-06-10T22:16:34.080Z,11.25
2023-06-10T22:19:01.575Z,11.24
2023-06-10T22:21:30.132Z,11.23
2023-06-10T22:23:58.213Z,11.22
2023-06-10T22:26:36.798Z,11.22
2023-06-10T22:29:17.202Z,11.18
2023-06-10T22:31:46.145Z,11.15
2023-06-10T22:34:13.573Z,11.07
2023-06-10T22:36:41.196Z,11.02
2023-06-10T22:39:13.235Z,10.97
2023-06-10T22:41:43.405Z,10.94
2023-06-10T22:44:11.080Z,10.92
2023-06-10T22:46:38.603Z,10.91
2023-06-10T22:49:06.147Z,10.88
2023-06-10T22:51:33.760Z,10.85
2023-06-10T22:54:01.442Z,10.83
2023-06-10T22:56:29.065Z,10.82
2023-06-10T22:58:58.490Z,10.86
2023-06-10T23:01:25.957Z,10.84
2023-06-10T23:03:53.528Z,10.87
2023-06-10T23:06:21.062Z,10.87
2023-06-10T23:08:48.538Z,10.85
2023-06-10T23:11:16.071Z,10.81
2023-06-10T23:13:43.307Z,10.76
2023-06-10T23:16:12.339Z,10.73
2023-06-10T23:18:41.428Z,10.72
2023-06-10T23:21:09.242Z,10.68
2023-06-10T23:23:38.446Z,10.66
2023-06-10T23:26:06.318Z,10.64
2023-06-10T23:28:34.382Z,10.58
2023-06-10T23:31:02.550Z,10.56
2023-06-10T23:33:32.002Z,10.54
2023-06-10T23:35:59.549Z,10.54
2023-06-10T23:38:27.173Z,10.50
2023-06-10T23:40:54.508Z,10.47
2023-06-10T23:43:21.917Z,10.42
2023-06-10T23:45:49.317Z,10.37
2023-06-10T23:48:16.968Z,10.33
2023-06-10T23:50:45.837Z,10.33
2023-06-10T23:53:13.690Z,10.31
2023-06-10T23:55:41.486Z,10.30
2023-06-10T23:58:08.872Z,10.28
